Time;durP1;ratioP1;P1;durP2;ratioP2;P2;SDS_P1;SDS_P2;PMS_P1;PMS_P2;Temp;Humidity;BMP_temperature;BMP_pressure;BME280_temperature;BME280_humidity;BME280_pressure;Samples;Min_cycle;Max_cycle;Signal;HPM_P1;HPM_P2
2023/05/11 00:01:54;;;;;;;17.87;15.07;;;22.70;59.80;;;;;;4715807;59;21039;-34
2023/05/11 00:06:57;;;;;;;16.73;14.73;;;22.80;59.90;;;;;;4769590;55;21004;-34
2023/05/11 00:11:57;;;;;;;16.02;14.30;;;22.70;59.80;;;;;;4715691;59;21521;-35
2023/05/11 00:16:58;;;;;;;16.83;14.73;;;22.70;59.80;;;;;;4715676;59;21050;-37
2023/05/11 00:22:00;;;;;;;15.77;14.05;;;22.70;59.40;;;;;;4721677;55;21040;-40
2023/05/11 00:27:01;;;;;;;16.37;14.68;;;22.70;59.80;;;;;;4751817;55;21490;-36
2023/05/11 00:32:01;;;;;;;16.25;14.55;;;22.80;59.80;;;;;;4754258;55;21067;-36
2023/05/11 00:37:03;;;;;;;17.23;14.40;;;22.70;59.80;;;;;;4716510;56;21470;-31
2023/05/11 00:42:04;;;;;;;15.77;14.07;;;22.70;59.80;;;;;;4715838;59;21570;-34
2023/05/11 00:47:06;;;;;;;16.37;14.45;;;22.80;59.90;;;;;;4769431;55;20999;-30
2023/05/11 00:52:07;;;;;;;16.30;14.52;;;22.70;59.80;;;;;;4799847;55;21020;-34
2023/05/11 00:57:12;;;;;;;16.80;15.00;;;22.70;59.80;;;;;;4775262;55;21537;-33
2023/05/11 01:02:13;;;;;;;16.67;13.98;;;22.70;60.40;;;;;;4797124;55;21021;-32
2023/05/11 01:07:41;;;;;;;15.43;13.82;;;22.70;59.80;;;;;;4736473;55;21028;-34
2023/05/11 01:13:36;;;;;;;15.63;13.80;;;22.70;59.70;;;;;;4716264;55;21099;-36
2023/05/11 01:18:59;;;;;;;16.70;14.23;;;22.70;59.70;;;;;;4716207;59;21019;-35
2023/05/11 01:24:36;;;;;;;15.10;13.50;;;22.70;59.70;;;;;;4770245;55;21505;-34
2023/05/11 01:33:11;;;;;;;16.35;14.13;;;22.70;59.80;;;;;;4809294;55;21489;-33
2023/05/11 01:38:14;;;;;;;15.90;13.52;;;22.70;59.80;;;;;;4783599;55;21131;-34
2023/05/11 01:43:21;;;;;;;14.68;13.13;;;22.70;59.70;;;;;;4752927;55;21023;-30
2023/05/11 01:48:28;;;;;;;14.50;13.00;;;22.70;59.70;;;;;;4744856;55;21486;-33
2023/05/11 01:53:33;;;;;;;14.02;12.55;;;22.70;59.70;;;;;;4734197;55;20999;-34
2023/05/11 01:58:37;;;;;;;15.43;13.25;;;22.70;59.70;;;;;;4715628;59;21023;-35
2023/05/11 02:03:40;;;;;;;14.23;12.73;;;22.70;59.70;;;;;;4731420;55;21028;-36
2023/05/11 02:08:42;;;;;;;13.90;12.50;;;22.70;59.70;;;;;;4734992;55;21920;-35
2023/05/11 02:13:45;;;;;;;13.88;12.43;;;22.70;59.70;;;;;;4795380;55;21051;-35
2023/05/11 02:18:47;;;;;;;13.90;12.43;;;22.70;59.70;;;;;;4716045;59;21090;-36
2023/05/11 02:23:50;;;;;;;13.65;12.00;;;22.70;59.70;;;;;;4764990;55;21115;-36
2023/05/11 02:28:51;;;;;;;13.73;11.88;;;22.70;59.70;;;;;;4763489;55;21549;-32
2023/05/11 02:33:55;;;;;;;14.25;12.60;;;22.70;59.70;;;;;;4714548;56;21022;-31
2023/05/11 02:39:03;;;;;;;13.07;11.68;;;22.70;59.70;;;;;;4809867;55;21565;-36
2023/05/11 02:44:07;;;;;;;13.38;11.98;;;22.70;59.70;;;;;;4716128;59;21011;-35
2023/05/11 02:49:11;;;;;;;13.43;12.02;;;22.70;59.70;;;;;;4852212;55;21003;-35
2023/05/11 02:54:14;;;;;;;14.05;12.43;;;22.70;59.60;;;;;;4786060;55;21565;-31
2023/05/11 02:59:15;;;;;;;13.50;11.70;;;22.70;59.70;;;;;;4786039;55;21063;-36
2023/05/11 03:04:17;;;;;;;13.13;11.73;;;22.70;59.60;;;;;;4742929;55;21079;-35
2023/05/11 03:09:17;;;;;;;13.50;11.77;;;22.70;59.60;;;;;;4769755;55;21019;-34
2023/05/11 03:14:18;;;;;;;12.93;11.60;;;22.70;59.60;;;;;;4773967;55;21076;-35
2023/05/11 03:19:20;;;;;;;13.43;11.85;;;22.70;59.60;;;;;;4872521;55;21702;-35
2023/05/11 03:24:22;;;;;;;12.98;11.68;;;22.70;59.60;;;;;;4810189;55;21115;-35
2023/05/11 03:29:25;;;;;;;12.93;11.63;;;22.70;59.60;;;;;;4758984;55;21027;-31
2023/05/11 03:34:26;;;;;;;13.20;11.80;;;22.70;59.60;;;;;;4730425;55;21585;-33
2023/05/11 03:39:32;;;;;;;13.20;11.77;;;22.70;59.60;;;;;;4756184;55;21019;-31
2023/05/11 03:44:33;;;;;;;13.07;11.77;;;22.70;59.50;;;;;;4778892;55;21011;-33
2023/05/11 03:49:36;;;;;;;13.40;12.00;;;22.70;59.50;;;;;;4733835;55;21150;-35
2023/05/11 03:54:37;;;;;;;13.18;11.77;;;22.70;59.50;;;;;;4715120;56;21044;-37
2023/05/11 03:59:39;;;;;;;12.48;11.18;;;22.70;59.50;;;;;;4791901;55;21513;-35
2023/05/11 04:04:39;;;;;;;12.82;11.45;;;22.70;59.50;;;;;;4715535;59;21004;-36
2023/05/11 04:09:40;;;;;;;12.10;10.77;;;22.70;59.50;;;;;;4735576;55;21508;-36
2023/05/11 04:14:41;;;;;;;12.48;10.23;;;22.70;59.50;;;;;;4749923;55;21015;-36
2023/05/11 04:19:42;;;;;;;11.82;10.63;;;22.70;59.50;;;;;;4732972;55;21056;-36
2023/05/11 04:24:43;;;;;;;12.05;10.80;;;22.60;59.50;;;;;;4714302;59;21063;-33
2023/05/11 04:29:44;;;;;;;11.70;10.50;;;22.60;59.50;;;;;;4778154;55;21486;-32
2023/05/11 04:34:45;;;;;;;11.65;10.45;;;22.70;59.50;;;;;;4799893;55;21035;-34
2023/05/11 04:39:46;;;;;;;12.25;10.45;;;22.60;59.50;;;;;;4777690;55;21087;-31
2023/05/11 04:44:46;;;;;;;11.82;10.63;;;22.70;59.60;;;;;;4748700;55;21051;-35
2023/05/11 04:49:47;;;;;;;11.02;9.90;;;22.70;59.50;;;;;;4715528;59;21111;-36
2023/05/11 04:54:48;;;;;;;11.50;10.30;;;22.70;58.90;;;;;;4719597;55;21083;-35
2023/05/11 04:59:49;;;;;;;11.77;10.57;;;22.60;59.40;;;;;;4759605;55;21087;-36
2023/05/11 05:04:51;;;;;;;11.48;10.32;;;22.70;59.40;;;;;;4802263;55;21019;-32
2023/05/11 05:09:52;;;;;;;10.82;9.73;;;22.70;59.40;;;;;;4737151;55;21572;-34
2023/05/11 05:14:53;;;;;;;11.60;10.02;;;22.60;59.30;;;;;;4795328;55;21071;-34
2023/05/11 05:19:53;;;;;;;12.13;10.80;;;22.60;59.20;;;;;;4753695;55;21021;-37
2023/05/11 05:24:54;;;;;;;11.70;10.15;;;22.60;59.30;;;;;;4735359;55;21074;-36
2023/05/11 05:29:55;;;;;;;12.68;10.70;;;22.60;59.20;;;;;;4715705;59;21019;-35
2023/05/11 05:34:56;;;;;;;10.98;9.88;;;22.60;59.10;;;;;;4904670;55;21064;-35
2023/05/11 05:39:57;;;;;;;11.23;10.02;;;22.60;59.10;;;;;;4734746;55;21015;-34
2023/05/11 05:44:58;;;;;;;11.95;10.73;;;22.60;59.00;;;;;;4771856;55;21032;-38
2023/05/11 05:49:58;;;;;;;13.30;11.20;;;22.60;59.00;;;;;;4860806;55;21031;-36
2023/05/11 05:54:59;;;;;;;11.80;10.60;;;22.60;59.00;;;;;;4734195;55;21542;-36
2023/05/11 06:00:00;;;;;;;12.02;10.80;;;22.60;58.90;;;;;;4775096;55;21027;-33
2023/05/11 06:05:01;;;;;;;12.27;10.90;;;22.60;58.90;;;;;;4715607;56;22285;-36
2023/05/11 06:10:03;;;;;;;12.13;10.88;;;22.60;58.90;;;;;;4731142;55;21032;-35
2023/05/11 06:15:05;;;;;;;13.40;12.10;;;22.60;58.80;;;;;;4763909;55;21588;-36
2023/05/11 06:20:07;;;;;;;13.23;11.82;;;22.60;58.70;;;;;;4828831;55;21501;-34
2023/05/11 06:25:08;;;;;;;12.98;11.63;;;22.60;58.80;;;;;;4743664;55;21474;-33
2023/05/11 06:30:10;;;;;;;14.38;11.27;;;22.60;58.90;;;;;;4725877;55;21048;-34
2023/05/11 06:35:11;;;;;;;12.63;11.20;;;22.60;58.80;;;;;;4775306;55;21000;-36
2023/05/11 06:40:14;;;;;;;13.10;11.75;;;22.60;58.80;;;;;;4716403;55;21082;-36
2023/05/11 06:45:15;;;;;;;13.55;12.20;;;22.60;58.70;;;;;;4713843;59;21505;-36
2023/05/11 06:50:19;;;;;;;13.43;12.02;;;22.60;58.80;;;;;;4732730;55;21597;-35
2023/05/11 06:55:20;;;;;;;13.43;11.80;;;22.60;58.70;;;;;;4724085;55;21628;-36
2023/05/11 07:00:21;;;;;;;13.15;11.75;;;22.60;58.60;;;;;;4712840;59;21035;-36
2023/05/11 07:05:22;;;;;;;12.90;11.50;;;22.60;58.70;;;;;;4715195;55;21522;-36
2023/05/11 07:10:23;;;;;;;12.95;11.32;;;22.60;58.60;;;;;;4798301;55;21481;-37
2023/05/11 07:15:24;;;;;;;14.70;12.40;;;22.60;58.60;;;;;;4714569;57;21103;-36
2023/05/11 07:20:25;;;;;;;14.57;13.07;;;22.60;58.60;;;;;;4755141;55;21127;-37
2023/05/11 07:25:25;;;;;;;13.68;11.68;;;22.60;58.60;;;;;;4801454;55;21032;-35
2023/05/11 07:30:26;;;;;;;13.45;11.77;;;22.60;58.70;;;;;;4753425;55;21106;-36
2023/05/11 07:35:27;;;;;;;13.88;12.43;;;22.60;58.60;;;;;;4714775;59;21080;-36
2023/05/11 07:40:28;;;;;;;15.38;12.27;;;22.60;58.60;;;;;;4736997;55;21028;-36
2023/05/11 07:45:30;;;;;;;14.60;13.10;;;22.60;58.70;;;;;;4785408;55;21064;-35
2023/05/11 07:50:31;;;;;;;14.75;12.93;;;22.60;58.60;;;;;;4795280;55;21560;-33
2023/05/11 07:55:32;;;;;;;14.30;12.70;;;22.60;58.60;;;;;;4714475;59;21083;-37
2023/05/11 08:00:33;;;;;;;14.93;13.25;;;22.60;58.60;;;;;;4728960;55;21060;-35
2023/05/11 08:05:36;;;;;;;14.48;12.63;;;22.60;58.60;;;;;;4715230;59;21024;-35
2023/05/11 08:10:37;;;;;;;15.93;13.77;;;22.60;58.60;;;;;;4715649;59;21537;-36
2023/05/11 08:15:38;;;;;;;15.20;12.70;;;22.60;58.60;;;;;;4738248;55;21071;-35
2023/05/11 08:20:41;;;;;;;16.85;13.75;;;22.60;58.60;;;;;;4719210;55;21083;-33
2023/05/11 08:25:50;;;;;;;15.13;13.00;;;22.60;58.60;;;;;;4831329;55;21474;-37
2023/05/11 08:30:58;;;;;;;17.15;13.45;;;22.70;58.70;;;;;;4738746;55;21024;-36
2023/05/11 08:35:58;;;;;;;16.35;13.77;;;22.70;58.70;;;;;;4740280;55;21066;-33
2023/05/11 08:41:01;;;;;;;16.62;14.50;;;22.60;58.70;;;;;;4716103;59;21546;-33
2023/05/11 08:46:06;;;;;;;15.82;14.20;;;22.70;58.70;;;;;;4792437;55;21043;-31
2023/05/11 08:51:08;;;;;;;16.83;14.82;;;22.70;58.70;;;;;;4725004;55;21501;-30
2023/05/11 08:56:10;;;;;;;15.90;14.25;;;22.60;59.30;;;;;;4771752;55;21019;-36
2023/05/11 09:01:11;;;;;;;17.60;15.13;;;22.60;58.60;;;;;;4758930;55;21079;-36
2023/05/11 09:06:13;;;;;;;19.75;14.85;;;22.60;58.70;;;;;;4762857;55;21036;-36
2023/05/11 09:11:14;;;;;;;16.70;14.63;;;22.60;58.70;;;;;;4715766;55;21083;-37
2023/05/11 09:16:15;;;;;;;16.77;15.02;;;22.60;58.70;;;;;;4759604;55;21027;-34
2023/05/11 09:21:17;;;;;;;16.48;14.77;;;22.60;58.70;;;;;;4763831;55;22710;-37
2023/05/11 09:26:27;;;;;;;17.20;15.38;;;22.70;58.80;;;;;;4740289;55;21324;-37
2023/05/11 09:31:45;;;;;;;19.37;15.05;;;22.70;58.80;;;;;;4764468;55;21530;-31
2023/05/11 09:36:48;;;;;;;17.87;14.93;;;22.70;58.80;;;;;;4736126;55;20995;-36
2023/05/11 09:41:49;;;;;;;19.15;15.80;;;22.70;58.90;;;;;;4849697;55;21135;-34
2023/05/11 09:46:50;;;;;;;18.50;16.50;;;22.60;58.80;;;;;;4715864;59;21138;-35
2023/05/11 09:52:00;;;;;;;18.30;16.37;;;22.60;58.80;;;;;;4766278;55;21027;-34
2023/05/11 09:57:01;;;;;;;18.85;16.65;;;22.60;58.90;;;;;;4798562;55;21466;-36
2023/05/11 10:02:26;;;;;;;19.15;17.15;;;22.60;58.90;;;;;;4797488;55;21000;-37
2023/05/11 10:07:36;;;;;;;20.62;17.85;;;22.70;59.00;;;;;;4756066;55;21486;-34
2023/05/11 10:12:39;;;;;;;20.52;18.33;;;22.60;59.00;;;;;;4725527;55;21430;-36
2023/05/11 10:17:43;;;;;;;21.05;17.95;;;22.60;59.00;;;;;;4764128;55;21783;-33
2023/05/11 10:22:45;;;;;;;23.23;19.80;;;22.60;59.00;;;;;;4738308;55;21513;-35
2023/05/11 10:27:46;;;;;;;24.67;19.90;;;22.70;59.70;;;;;;4713993;55;21047;-35
2023/05/11 10:32:48;;;;;;;23.30;19.77;;;22.70;59.80;;;;;;4735058;55;22322;-30
2023/05/11 10:37:50;;;;;;;23.50;19.65;;;22.80;60.00;;;;;;4738830;55;21528;-33
2023/05/11 10:47:17;;;;;;;22.87;19.98;;;22.90;60.10;;;;;;4721416;55;21059;-30
2023/05/11 10:52:50;;;;;;;23.83;20.60;;;22.90;60.40;;;;;;4716503;55;21016;-35
2023/05/11 10:58:09;;;;;;;24.30;19.83;;;23.00;60.50;;;;;;4713913;59;21458;-37
2023/05/11 11:03:11;;;;;;;25.23;20.45;;;23.00;60.70;;;;;;4736887;55;21384;-34
2023/05/11 11:08:12;;;;;;;30.48;22.00;;;23.00;60.70;;;;;;4736199;55;21051;-27
2023/05/11 11:13:16;;;;;;;25.95;21.80;;;23.10;60.80;;;;;;4792767;55;21625;-32
2023/05/11 11:18:24;;;;;;;23.80;20.58;;;23.10;60.90;;;;;;4733843;55;20992;-35
2023/05/11 11:23:47;;;;;;;30.55;22.92;;;23.10;60.80;;;;;;4773650;55;21124;-35
2023/05/11 11:29:21;;;;;;;27.05;22.33;;;23.10;60.70;;;;;;4737621;55;21044;-32
2023/05/11 11:34:33;;;;;;;31.23;22.60;;;23.10;60.80;;;;;;4755968;55;21574;-32
2023/05/11 11:40:08;;;;;;;28.05;22.83;;;23.10;60.80;;;;;;4713801;59;21498;-35
2023/05/11 11:45:32;;;;;;;30.50;23.45;;;23.00;60.70;;;;;;4744170;55;21507;-32
2023/05/11 11:50:36;;;;;;;27.05;22.70;;;23.00;60.70;;;;;;4713606;59;21609;-35
2023/05/11 11:55:58;;;;;;;27.37;23.40;;;23.00;60.80;;;;;;4714808;55;21150;-32
2023/05/11 12:00:59;;;;;;;29.45;23.50;;;23.00;60.80;;;;;;4745630;55;21554;-34
2023/05/11 12:06:01;;;;;;;27.40;22.37;;;23.10;60.90;;;;;;4771026;55;21063;-34
2023/05/11 12:11:03;;;;;;;29.20;22.48;;;23.10;61.20;;;;;;4721551;55;21067;-34
2023/05/11 12:16:15;;;;;;;29.17;23.65;;;23.10;61.30;;;;;;4733279;55;21096;-34
2023/05/11 12:21:24;;;;;;;31.05;24.30;;;23.10;61.40;;;;;;4715117;55;21083;-37
2023/05/11 12:26:26;;;;;;;30.85;23.35;;;23.20;61.40;;;;;;4715452;55;21470;-33
2023/05/11 12:31:33;;;;;;;27.02;21.90;;;23.20;61.50;;;;;;4713327;59;21025;-28
2023/05/11 12:36:35;;;;;;;32.58;24.70;;;23.20;61.50;;;;;;4715855;55;21083;-34
2023/05/11 12:41:41;;;;;;;34.90;25.20;;;23.20;61.70;;;;;;4747975;55;21582;-32
2023/05/11 12:46:44;;;;;;;29.60;23.92;;;23.20;61.70;;;;;;4739795;55;21144;-35
2023/05/11 12:52:00;;;;;;;33.33;25.20;;;23.30;61.80;;;;;;4741692;55;21024;-29
2023/05/11 12:57:02;;;;;;;29.50;23.98;;;23.30;61.90;;;;;;4714752;55;21549;-29
2023/05/11 13:02:16;;;;;;;29.63;23.73;;;23.30;61.80;;;;;;4786433;55;21031;-32
2023/05/11 13:07:25;;;;;;;28.87;23.83;;;23.30;62.00;;;;;;4726849;55;21067;-29
2023/05/11 13:12:28;;;;;;;29.77;23.73;;;23.30;62.00;;;;;;4735679;55;21111;-36
2023/05/11 13:17:33;;;;;;;27.15;23.48;;;23.30;62.10;;;;;;4750514;55;21011;-30
2023/05/11 13:22:34;;;;;;;28.67;23.52;;;23.30;62.40;;;;;;4805731;55;21091;-30
2023/05/11 13:27:36;;;;;;;26.62;23.25;;;23.40;62.50;;;;;;4720657;55;21638;-36
2023/05/11 13:32:38;;;;;;;28.52;23.83;;;23.40;62.60;;;;;;4720121;55;21047;-31
2023/05/11 13:37:38;;;;;;;29.12;24.45;;;23.40;62.40;;;;;;4770582;55;21061;-34
2023/05/11 13:42:42;;;;;;;31.83;24.95;;;23.40;62.60;;;;;;4723171;55;21088;-30
2023/05/11 13:47:43;;;;;;;28.08;22.87;;;23.40;62.50;;;;;;4722853;55;21219;-35
2023/05/11 13:52:44;;;;;;;30.62;24.90;;;23.50;62.80;;;;;;4713134;59;21028;-34
2023/05/11 13:57:44;;;;;;;31.85;25.62;;;23.50;62.70;;;;;;4737169;55;21513;-34
2023/05/11 14:02:48;;;;;;;31.58;25.75;;;23.40;62.70;;;;;;4767322;55;20999;-37
2023/05/11 14:07:49;;;;;;;30.33;25.52;;;23.40;62.90;;;;;;4735826;55;21498;-34
2023/05/11 14:12:50;;;;;;;33.50;26.27;;;23.50;63.00;;;;;;4774883;55;21593;-31
2023/05/11 14:17:52;;;;;;;31.15;24.98;;;23.40;63.00;;;;;;4736457;55;21047;-36
2023/05/11 14:22:53;;;;;;;29.75;24.87;;;23.30;63.00;;;;;;4902744;55;21620;-35
2023/05/11 14:27:54;;;;;;;33.75;26.50;;;23.30;63.10;;;;;;4714769;59;21039;-34
2023/05/11 14:32:55;;;;;;;31.27;25.40;;;23.30;63.10;;;;;;4726257;55;21079;-33
2023/05/11 14:37:56;;;;;;;29.48;24.73;;;23.20;63.20;;;;;;4714526;55;21024;-37
2023/05/11 14:42:57;;;;;;;32.50;26.98;;;23.20;63.20;;;;;;4732393;55;21015;-34
2023/05/11 14:47:58;;;;;;;32.67;27.10;;;23.20;63.30;;;;;;4744916;55;21059;-35
2023/05/11 14:52:59;;;;;;;32.80;26.77;;;23.10;63.20;;;;;;4770047;55;21514;-36
2023/05/11 14:58:07;;;;;;;34.75;26.87;;;23.10;63.20;;;;;;4742860;55;21558;-30
2023/05/11 15:03:09;;;;;;;30.98;25.80;;;23.10;63.30;;;;;;4756522;55;21589;-32
2023/05/11 15:08:10;;;;;;;32.20;26.60;;;23.10;63.20;;;;;;4728465;55;21067;-36
2023/05/11 15:13:13;;;;;;;29.45;26.23;;;23.00;63.20;;;;;;4763222;55;21167;-36
2023/05/11 15:18:15;;;;;;;30.73;26.67;;;23.00;63.20;;;;;;4771473;55;21561;-34
2023/05/11 15:23:16;;;;;;;28.83;25.60;;;23.00;63.20;;;;;;4714949;59;21530;-36
2023/05/11 15:28:17;;;;;;;30.75;25.55;;;23.00;63.20;;;;;;4715594;55;21020;-34
2023/05/11 15:33:18;;;;;;;30.75;26.85;;;23.00;63.20;;;;;;4715228;55;21137;-34
2023/05/11 15:38:20;;;;;;;31.48;26.75;;;23.00;63.10;;;;;;4715742;56;21467;-36
2023/05/11 15:43:21;;;;;;;28.85;25.45;;;22.90;63.20;;;;;;4806395;55;21020;-35
2023/05/11 15:48:21;;;;;;;31.15;26.98;;;23.00;63.20;;;;;;4794382;55;20999;-35
2023/05/11 15:53:22;;;;;;;30.77;26.15;;;23.00;63.00;;;;;;4834051;55;21511;-34
2023/05/11 15:58:23;;;;;;;32.38;26.95;;;23.00;63.00;;;;;;4724271;55;21083;-34
2023/05/11 16:03:24;;;;;;;31.37;26.48;;;23.00;63.00;;;;;;4753491;55;21023;-33
2023/05/11 16:08:25;;;;;;;30.90;26.85;;;22.90;62.90;;;;;;4776991;55;21007;-35
2023/05/11 16:13:26;;;;;;;30.33;27.02;;;23.00;63.00;;;;;;4778793;55;21103;-35
2023/05/11 16:18:28;;;;;;;29.63;25.98;;;23.00;63.00;;;;;;4788645;55;21003;-34
2023/05/11 16:23:29;;;;;;;30.40;26.35;;;23.00;63.00;;;;;;4714521;59;21597;-36
2023/05/11 16:28:30;;;;;;;29.37;25.77;;;22.90;62.90;;;;;;4803615;55;20979;-35
2023/05/11 16:33:31;;;;;;;30.25;26.83;;;22.90;62.90;;;;;;4715208;55;21527;-34
2023/05/11 16:38:32;;;;;;;28.38;25.27;;;22.90;62.90;;;;;;4785984;55;21032;-37
2023/05/11 16:43:33;;;;;;;31.02;26.92;;;23.00;63.00;;;;;;4814822;55;21522;-36
2023/05/11 16:48:34;;;;;;;31.37;25.67;;;22.90;62.90;;;;;;4778858;55;21573;-36
2023/05/11 16:53:35;;;;;;;28.67;24.98;;;22.90;62.90;;;;;;4715288;59;21502;-35
2023/05/11 16:58:36;;;;;;;29.52;25.92;;;22.90;62.80;;;;;;4741634;55;21573;-37
2023/05/11 17:03:37;;;;;;;30.98;26.37;;;22.90;62.80;;;;;;4715821;55;21147;-34
2023/05/11 17:08:38;;;;;;;29.98;26.67;;;22.90;62.80;;;;;;4715283;59;21063;-34
2023/05/11 17:13:39;;;;;;;29.02;25.45;;;22.90;62.90;;;;;;4729349;55;21565;-35
2023/05/11 17:18:40;;;;;;;28.58;24.65;;;22.90;62.90;;;;;;4794746;55;21597;-29
2023/05/11 17:23:42;;;;;;;30.90;24.95;;;22.90;62.90;;;;;;4734086;55;21110;-35
2023/05/11 17:28:43;;;;;;;27.37;24.25;;;22.90;62.80;;;;;;4741512;55;21529;-35
2023/05/11 17:33:44;;;;;;;28.80;24.87;;;22.90;62.80;;;;;;4719035;55;21031;-31
2023/05/11 17:38:44;;;;;;;29.63;25.55;;;22.90;63.20;;;;;;4728680;55;21116;-33
2023/05/11 17:43:46;;;;;;;28.45;25.45;;;22.90;62.80;;;;;;4753909;55;21031;-32
2023/05/11 17:48:47;;;;;;;28.87;25.50;;;22.90;62.80;;;;;;4776381;55;21682;-35
2023/05/11 17:53:48;;;;;;;27.87;24.67;;;22.90;62.90;;;;;;4730201;55;21135;-35
2023/05/11 17:58:50;;;;;;;31.70;25.60;;;22.90;62.80;;;;;;4731768;55;21554;-35
2023/05/11 18:03:51;;;;;;;27.90;24.83;;;22.90;62.80;;;;;;4760907;55;22211;-35
2023/05/11 18:08:52;;;;;;;27.87;24.77;;;22.90;62.80;;;;;;4850840;55;21024;-35
2023/05/11 18:13:53;;;;;;;28.40;25.27;;;22.90;62.80;;;;;;4753717;55;21512;-34
2023/05/11 18:18:55;;;;;;;30.23;26.73;;;22.90;62.80;;;;;;4744876;55;21505;-35
2023/05/11 18:23:56;;;;;;;28.00;25.00;;;22.90;62.80;;;;;;4758988;55;21048;-34
2023/05/11 18:28:56;;;;;;;31.62;26.67;;;22.90;62.80;;;;;;4726745;55;21076;-35
2023/05/11 18:33:57;;;;;;;28.60;25.58;;;22.90;62.90;;;;;;4742507;55;21067;-35
2023/05/11 18:38:58;;;;;;;30.33;26.58;;;22.90;62.90;;;;;;4755988;55;21511;-34
2023/05/11 18:43:59;;;;;;;28.80;25.48;;;22.90;63.00;;;;;;4728041;55;21067;-35
2023/05/11 18:49:00;;;;;;;29.02;25.17;;;22.90;63.50;;;;;;4735778;55;21525;-32
2023/05/11 18:54:01;;;;;;;27.90;25.00;;;22.90;62.90;;;;;;4748441;55;21066;-35
2023/05/11 18:59:02;;;;;;;27.77;24.58;;;22.90;62.60;;;;;;4744524;55;21153;-35
2023/05/11 19:04:02;;;;;;;31.37;26.58;;;22.90;62.90;;;;;;4724493;55;21345;-30
2023/05/11 19:09:03;;;;;;;28.87;25.77;;;22.90;62.90;;;;;;4724045;55;21071;-33
2023/05/11 19:14:06;;;;;;;28.65;25.17;;;22.80;62.90;;;;;;4732429;55;21525;-29
2023/05/11 19:19:07;;;;;;;29.87;25.25;;;22.90;62.90;;;;;;4745196;55;21585;-33
2023/05/11 19:24:09;;;;;;;27.55;24.42;;;22.90;62.90;;;;;;4754261;55;21570;-35
2023/05/11 19:29:12;;;;;;;31.25;26.35;;;22.80;62.90;;;;;;4750053;55;21541;-33
2023/05/11 19:34:13;;;;;;;28.75;25.10;;;22.90;62.90;;;;;;4723743;55;21463;-35
2023/05/11 19:39:16;;;;;;;27.45;24.45;;;22.90;63.50;;;;;;4724277;55;21570;-35
2023/05/11 19:44:17;;;;;;;26.62;23.73;;;22.80;62.80;;;;;;4720083;55;21525;-33
2023/05/11 19:49:18;;;;;;;28.62;25.17;;;22.80;62.80;;;;;;4762394;55;21577;-35
2023/05/11 19:54:19;;;;;;;29.65;26.42;;;22.80;62.90;;;;;;4715349;59;21056;-33
2023/05/11 19:59:21;;;;;;;28.58;25.02;;;22.80;62.90;;;;;;4715583;59;21063;-31
2023/05/11 20:04:22;;;;;;;28.27;24.40;;;22.80;62.90;;;;;;4790446;55;21525;-34
2023/05/11 20:09:25;;;;;;;27.90;24.87;;;22.80;62.90;;;;;;4725574;55;21040;-35
2023/05/11 20:14:26;;;;;;;26.80;24.00;;;22.80;62.90;;;;;;4742291;55;21020;-37
2023/05/11 20:19:27;;;;;;;27.55;23.80;;;22.80;62.90;;;;;;4746835;55;21458;-32
2023/05/11 20:24:29;;;;;;;27.33;24.25;;;22.80;62.90;;;;;;4824424;55;22016;-37
2023/05/11 20:29:30;;;;;;;27.23;23.77;;;22.80;62.90;;;;;;4841078;55;21486;-36
2023/05/11 20:34:31;;;;;;;27.25;23.62;;;22.80;62.80;;;;;;4752493;55;21079;-36
2023/05/11 20:39:32;;;;;;;26.05;22.85;;;22.80;62.80;;;;;;4715962;59;21574;-34
2023/05/11 20:44:33;;;;;;;25.42;22.33;;;22.80;62.90;;;;;;4766357;55;21015;-32
2023/05/11 20:49:34;;;;;;;26.08;23.38;;;22.80;62.80;;;;;;4715763;56;21465;-34
2023/05/11 20:54:35;;;;;;;25.65;22.95;;;22.80;62.80;;;;;;4859640;55;21058;-31
2023/05/11 20:59:36;;;;;;;26.60;23.75;;;22.80;62.80;;;;;;4773357;55;21502;-34
2023/05/11 21:04:37;;;;;;;28.17;22.83;;;22.80;63.60;;;;;;4728585;55;21003;-33
2023/05/11 21:09:38;;;;;;;25.20;22.52;;;22.80;62.90;;;;;;4716893;55;21640;-34
2023/05/11 21:14:39;;;;;;;25.67;22.87;;;22.80;62.90;;;;;;4791101;55;21079;-34
2023/05/11 21:19:40;;;;;;;25.42;21.87;;;22.80;62.80;;;;;;4720215;55;21131;-34
2023/05/11 21:24:41;;;;;;;24.58;21.98;;;22.80;62.90;;;;;;4716236;59;20996;-35
2023/05/11 21:29:42;;;;;;;24.58;21.98;;;22.80;62.80;;;;;;4723024;55;21609;-34
2023/05/11 21:34:43;;;;;;;25.52;22.48;;;22.80;62.90;;;;;;5023528;55;21083;-35
2023/05/11 21:39:44;;;;;;;23.92;21.37;;;22.80;62.80;;;;;;4800688;55;21048;-34
2023/05/11 21:44:45;;;;;;;24.85;22.15;;;22.80;62.80;;;;;;4715627;59;21056;-34
2023/05/11 21:49:45;;;;;;;24.55;21.92;;;22.80;62.90;;;;;;4725270;55;21015;-34
2023/05/11 21:54:46;;;;;;;23.77;21.27;;;22.80;62.90;;;;;;4727130;55;22300;-34
2023/05/11 21:59:47;;;;;;;24.80;21.33;;;22.80;62.90;;;;;;4751859;55;21040;-35
2023/05/11 22:04:48;;;;;;;24.05;21.55;;;22.80;62.80;;;;;;4747178;55;21048;-30
2023/05/11 22:09:49;;;;;;;24.30;21.70;;;22.70;62.80;;;;;;4858290;55;21557;-36
2023/05/11 22:14:50;;;;;;;24.05;21.45;;;22.80;62.80;;;;;;4723549;55;21510;-32
2023/05/11 22:19:51;;;;;;;23.67;21.17;;;22.80;62.80;;;;;;4738561;55;21023;-36
2023/05/11 22:24:52;;;;;;;23.77;21.20;;;22.80;62.80;;;;;;4802553;55;21076;-36
2023/05/11 22:29:53;;;;;;;23.10;20.70;;;22.80;62.80;;;;;;4794978;55;21027;-35
2023/05/11 22:35:00;;;;;;;23.83;20.88;;;22.80;62.80;;;;;;4842739;55;21012;-36
2023/05/11 22:40:01;;;;;;;22.80;20.42;;;22.80;62.80;;;;;;4820198;55;21011;-34
2023/05/11 22:45:02;;;;;;;22.95;20.55;;;22.70;62.20;;;;;;4720113;55;20988;-35
2023/05/11 22:50:03;;;;;;;22.65;20.00;;;22.80;63.40;;;;;;4781746;55;21131;-34
2023/05/11 22:55:05;;;;;;;21.17;18.87;;;22.70;62.70;;;;;;4719765;55;21063;-35
2023/05/11 23:00:09;;;;;;;22.27;19.98;;;22.70;62.70;;;;;;4769314;55;21084;-36
2023/05/11 23:05:11;;;;;;;22.70;19.87;;;22.70;62.70;;;;;;4722889;55;20975;-34
2023/05/11 23:10:12;;;;;;;22.23;19.92;;;22.70;62.70;;;;;;4734626;55;21007;-32
2023/05/11 23:15:13;;;;;;;22.33;19.42;;;22.70;62.70;;;;;;4771819;55;21023;-33
2023/05/11 23:20:15;;;;;;;21.75;19.48;;;22.70;62.70;;;;;;4763410;55;21481;-31
2023/05/11 23:25:16;;;;;;;22.15;19.87;;;22.70;62.70;;;;;;4830050;55;21493;-32
2023/05/11 23:30:18;;;;;;;22.48;19.45;;;22.70;62.80;;;;;;4838234;55;21494;-31
2023/05/11 23:35:19;;;;;;;21.98;19.75;;;22.70;62.80;;;;;;4741973;55;21510;-36
2023/05/11 23:40:20;;;;;;;21.05;18.77;;;22.70;62.90;;;;;;4739387;55;21084;-34
2023/05/11 23:45:22;;;;;;;21.12;18.77;;;22.70;62.70;;;;;;4778728;55;21493;-34
2023/05/11 23:50:23;;;;;;;21.37;19.15;;;22.70;62.70;;;;;;4716978;55;21540;-36
2023/05/11 23:55:24;;;;;;;21.70;19.45;;;22.70;62.80;;;;;;4728487;55;21078;-36
